Time;durP1;ratioP1;P1;durP2;ratioP2;P2;SDS_P1;SDS_P2;PMS_P1;PMS_P2;Temp;Humidity;BMP_temperature;BMP_pressure;BME280_temperature;BME280_humidity;BME280_pressure;Samples;Min_cycle;Max_cycle;Signal;HPM_P1;HPM_P2
2022/04/09 00:00:33;;;;;;;0.60;0.60;;;;;;;7.77;63.18;98339.86;103451;1279;96485;-65
2022/04/09 00:03:03;;;;;;;0.70;0.70;;;;;;;7.73;63.13;98331.42;103343;1279;139086;-65
2022/04/09 00:05:31;;;;;;;0.60;0.60;;;;;;;7.77;63.34;98325.58;103483;1280;98846;-64
2022/04/09 00:07:59;;;;;;;0.60;0.60;;;;;;;7.77;63.44;98316.55;103354;1280;108778;-65
2022/04/09 00:10:27;;;;;;;0.60;0.60;;;;;;;7.76;63.60;98318.34;103300;1281;139242;-65
2022/04/09 00:12:55;;;;;;;0.60;0.60;;;;;;;7.73;63.55;98313.04;103474;1279;96591;-66
2022/04/09 00:15:23;;;;;;;0.60;0.60;;;;;;;7.73;63.66;98312.31;103460;1281;138261;-64
2022/04/09 00:17:51;;;;;;;0.60;0.60;;;;;;;7.75;63.96;98316.48;103503;1281;97484;-65
2022/04/09 00:20:19;;;;;;;0.60;0.60;;;;;;;7.75;63.93;98311.50;103426;1281;110219;-64
2022/04/09 00:22:47;;;;;;;0.60;0.60;;;;;;;7.81;64.09;98305.92;103371;1279;138824;-65
2022/04/09 00:25:23;;;;;;;0.50;0.50;;;;;;;7.78;64.02;98302.20;103575;1280;96981;-66
2022/04/09 00:27:52;;;;;;;0.50;0.50;;;;;;;7.73;64.23;98298.35;103385;1281;138164;-65
2022/04/09 00:30:20;;;;;;;0.60;0.60;;;;;;;7.68;64.47;98296.68;103475;1281;99892;-66
2022/04/09 00:32:47;;;;;;;0.50;0.50;;;;;;;7.70;64.62;98291.27;103242;1279;138772;-64
2022/04/09 00:35:15;;;;;;;0.60;0.60;;;;;;;7.69;64.59;98289.89;103387;1281;96902;-66
2022/04/09 00:37:44;;;;;;;0.60;0.60;;;;;;;7.69;64.74;98284.77;103382;1279;97091;-65
2022/04/09 00:40:14;;;;;;;0.60;0.60;;;;;;;7.74;64.55;98281.02;103280;1281;138852;-65
2022/04/09 00:42:42;;;;;;;0.60;0.60;;;;;;;7.72;64.93;98282.14;103391;1281;99293;-65
2022/04/09 00:45:11;;;;;;;0.60;0.60;;;;;;;7.73;64.96;98282.66;103364;1281;139379;-66
2022/04/09 00:47:39;;;;;;;0.60;0.60;;;;;;;7.69;65.14;98279.80;103577;1279;97068;-65
2022/04/09 00:50:09;;;;;;;0.50;0.50;;;;;;;7.75;65.05;98288.20;103570;1281;96553;-65
2022/04/09 00:52:40;;;;;;;0.60;0.60;;;;;;;7.66;65.38;98291.10;103224;1279;138486;-65
2022/04/09 00:55:08;;;;;;;0.70;0.70;;;;;;;7.58;65.54;98286.56;103698;1281;99642;-66
2022/04/09 00:57:40;;;;;;;0.60;0.60;;;;;;;7.63;65.80;98285.59;103232;1279;139240;-65
2022/04/09 01:00:10;;;;;;;0.60;0.60;;;;;;;7.72;65.33;98286.93;103567;1279;96801;-66
2022/04/09 01:02:44;;;;;;;0.60;0.60;;;;;;;7.65;65.72;98291.33;103319;1281;138469;-65
2022/04/09 01:05:13;;;;;;;0.60;0.60;;;;;;;7.57;66.07;98294.19;103445;1280;111357;-66
2022/04/09 01:07:41;;;;;;;0.50;0.50;;;;;;;7.61;66.16;98291.88;103420;1281;99403;-65
2022/04/09 01:10:09;;;;;;;0.50;0.50;;;;;;;7.69;66.13;98290.93;103345;1279;138637;-65
2022/04/09 01:12:37;;;;;;;0.60;0.60;;;;;;;7.70;66.43;98288.61;103418;1279;97845;-66
2022/04/09 01:15:07;;;;;;;0.50;0.50;;;;;;;7.62;66.32;98294.63;103293;1281;138426;-66
2022/04/09 01:17:36;;;;;;;0.60;0.60;;;;;;;7.57;66.94;98291.73;103652;1279;111188;-66
2022/04/09 01:20:20;;;;;;;0.60;0.60;;;;;;;7.61;66.88;98289.94;103773;1280;98469;-66
2022/04/09 01:22:50;;;;;;;0.50;0.50;;;;;;;7.71;66.91;98300.41;103304;1280;140557;-64
2022/04/09 01:25:19;;;;;;;0.50;0.50;;;;;;;7.74;66.48;98303.46;103136;1281;96741;-65
2022/04/09 01:27:49;;;;;;;0.60;0.60;;;;;;;7.71;66.74;98305.87;102975;1281;344384;-66
2022/04/09 01:30:18;;;;;;;0.60;0.60;;;;;;;7.75;66.71;98306.02;103357;1281;110591;-67
2022/04/09 01:32:46;;;;;;;0.60;0.60;;;;;;;7.77;67.14;98306.65;103427;1281;139305;-66
2022/04/09 01:35:14;;;;;;;0.50;0.50;;;;;;;7.86;66.79;98310.80;103426;1281;108851;-65
2022/04/09 01:37:42;;;;;;;0.50;0.50;;;;;;;7.98;66.69;98302.27;103382;1281;96610;-64
2022/04/09 01:40:10;;;;;;;0.60;0.60;;;;;;;8.06;66.29;98292.86;103300;1281;138577;-66
2022/04/09 01:42:42;;;;;;;0.50;0.50;;;;;;;7.99;66.03;98278.89;103332;1281;111059;-64
2022/04/09 01:45:10;;;;;;;0.60;0.60;;;;;;;7.90;66.15;98288.16;103222;1281;139351;-66
2022/04/09 01:47:42;;;;;;;0.60;0.60;;;;;;;7.95;66.49;98304.89;103351;1281;109327;-65
2022/04/09 01:50:11;;;;;;;0.60;0.60;;;;;;;7.95;66.60;98296.78;104341;1280;96677;-64
2022/04/09 01:52:39;;;;;;;0.50;0.50;;;;;;;7.98;66.50;98298.17;103258;1281;138982;-66
2022/04/09 01:55:07;;;;;;;0.50;0.50;;;;;;;8.06;66.43;98297.10;103315;1279;111519;-65
2022/04/09 01:57:38;;;;;;;0.50;0.50;;;;;;;8.10;66.28;98298.86;103306;1279;139095;-65
2022/04/09 02:00:10;;;;;;;0.60;0.60;;;;;;;8.09;66.28;98298.37;103385;1281;108059;-67
2022/04/09 02:02:42;;;;;;;0.50;0.50;;;;;;;7.95;66.32;98292.55;103398;1281;139458;-66
2022/04/09 02:05:14;;;;;;;0.50;0.50;;;;;;;7.83;66.75;98298.41;103511;1279;97130;-66
2022/04/09 02:07:44;;;;;;;0.50;0.50;;;;;;;7.74;67.32;98288.79;103588;1281;111169;-65
2022/04/09 02:10:12;;;;;;;0.50;0.50;;;;;;;7.64;67.80;98282.92;103421;1281;139296;-66
2022/04/09 02:12:42;;;;;;;0.50;0.50;;;;;;;7.53;68.06;98277.23;103376;1281;108854;-67
2022/04/09 02:15:13;;;;;;;0.60;0.60;;;;;;;7.52;68.29;98279.06;103571;1280;139460;-66
2022/04/09 02:17:42;;;;;;;0.50;0.50;;;;;;;7.56;68.20;98279.39;103378;1281;97929;-65
2022/04/09 02:20:12;;;;;;;0.60;0.60;;;;;;;7.50;68.64;98275.29;103419;1279;111131;-65
2022/04/09 02:22:42;;;;;;;0.60;0.60;;;;;;;7.48;68.97;98269.88;103382;1279;138711;-66
2022/04/09 02:25:14;;;;;;;0.50;0.50;;;;;;;7.48;68.73;98272.15;103418;1281;108830;-66
2022/04/09 02:27:43;;;;;;;0.50;0.50;;;;;;;7.56;68.79;98279.55;103337;1279;138728;-66
2022/04/09 02:30:12;;;;;;;0.70;0.70;;;;;;;7.61;68.28;98280.21;103395;1281;96590;-65
2022/04/09 02:32:52;;;;;;;0.50;0.50;;;;;;;7.58;68.48;98280.89;103318;1279;139226;-66
2022/04/09 02:35:23;;;;;;;0.60;0.60;;;;;;;7.51;68.60;98281.41;103354;1279;99890;-65
2022/04/09 02:37:51;;;;;;;0.60;0.60;;;;;;;7.40;69.11;98273.46;103931;1279;108872;-66
2022/04/09 02:40:20;;;;;;;0.60;0.60;;;;;;;7.35;69.56;98276.52;103270;1279;139083;-66
2022/04/09 02:42:50;;;;;;;0.60;0.60;;;;;;;7.35;69.62;98276.30;103404;1279;96662;-65
2022/04/09 02:45:18;;;;;;;0.50;0.50;;;;;;;7.31;69.68;98273.50;103229;1279;139837;-66
2022/04/09 02:47:46;;;;;;;0.70;0.70;;;;;;;7.24;70.11;98271.19;103338;1281;99451;-65
2022/04/09 02:50:16;;;;;;;0.60;0.60;;;;;;;7.21;70.06;98278.92;103191;1281;108858;-65
2022/04/09 02:52:45;;;;;;;0.60;0.60;;;;;;;7.24;70.26;98281.63;103311;1279;139145;-66
2022/04/09 02:55:14;;;;;;;0.60;0.60;;;;;;;7.20;70.36;98294.34;103376;1279;96576;-65
2022/04/09 02:57:42;;;;;;;0.50;0.50;;;;;;;7.24;70.39;98292.20;103336;1279;138668;-65
2022/04/09 03:00:12;;;;;;;0.60;0.60;;;;;;;7.26;70.14;98278.71;103404;1279;99688;-65
2022/04/09 03:02:42;;;;;;;0.60;0.60;;;;;;;7.20;70.39;98283.20;103401;1279;140416;-65
2022/04/09 03:05:31;;;;;;;0.60;0.60;;;;;;;7.11;70.87;98279.74;103406;1279;97180;-65
2022/04/09 03:07:59;;;;;;;0.60;0.60;;;;;;;7.15;71.05;98278.16;103471;1279;97042;-65
2022/04/09 03:10:28;;;;;;;0.60;0.60;;;;;;;7.28;70.85;98282.33;103324;1279;138912;-65
2022/04/09 03:12:56;;;;;;;0.60;0.60;;;;;;;7.37;70.19;98285.79;103417;1281;99455;-64
2022/04/09 03:15:26;;;;;;;0.60;0.60;;;;;;;7.37;69.85;98290.36;103394;1279;138644;-66
2022/04/09 03:17:54;;;;;;;0.50;0.50;;;;;;;7.32;70.17;98287.09;103531;1279;97200;-64
2022/04/09 03:20:23;;;;;;;0.60;0.60;;;;;;;7.35;70.30;98283.39;103350;1281;96576;-66
2022/04/09 03:22:51;;;;;;;0.60;0.60;;;;;;;7.32;69.97;98285.52;103338;1279;139033;-64
2022/04/09 03:25:33;;;;;;;0.60;0.60;;;;;;;7.35;70.35;98295.23;103352;1281;99785;-66
2022/04/09 03:28:01;;;;;;;0.50;0.50;;;;;;;7.36;70.32;98293.04;103206;1279;139101;-65
2022/04/09 03:30:29;;;;;;;0.60;0.60;;;;;;;7.41;70.16;98292.63;103362;1279;97132;-65
2022/04/09 03:32:58;;;;;;;0.50;0.50;;;;;;;7.45;69.95;98296.15;103577;1279;138829;-65
2022/04/09 03:35:30;;;;;;;0.60;0.60;;;;;;;7.43;69.96;98296.63;103442;1279;111549;-66
2022/04/09 03:37:58;;;;;;;0.60;0.60;;;;;;;7.43;69.89;98295.38;103549;1279;99980;-66
2022/04/09 03:40:35;;;;;;;0.60;0.60;;;;;;;7.40;69.90;98293.02;103232;1279;139612;-63
2022/04/09 03:43:03;;;;;;;0.60;0.60;;;;;;;7.37;69.88;98296.20;103890;1279;96581;-65
2022/04/09 03:45:31;;;;;;;0.60;0.60;;;;;;;7.33;70.33;98293.70;103221;1279;138996;-65
2022/04/09 03:48:00;;;;;;;0.50;0.50;;;;;;;7.38;70.10;98297.57;103420;1279;111089;-65
2022/04/09 03:50:30;;;;;;;0.60;0.60;;;;;;;7.38;70.00;98300.73;103349;1279;99418;-65
2022/04/09 03:53:00;;;;;;;0.50;0.50;;;;;;;7.34;70.18;98302.13;103129;1281;138854;-67
2022/04/09 03:55:29;;;;;;;0.50;0.50;;;;;;;7.34;70.38;98302.50;103469;1279;97024;-67
2022/04/09 03:57:58;;;;;;;0.60;0.60;;;;;;;7.37;70.38;98306.80;103363;1279;139061;-66
2022/04/09 04:00:26;;;;;;;0.70;0.70;;;;;;;7.38;70.35;98310.45;103377;1279;111629;-64
2022/04/09 04:02:57;;;;;;;0.60;0.60;;;;;;;7.36;70.12;98307.54;103250;1279;139193;-66
2022/04/09 04:05:25;;;;;;;0.60;0.60;;;;;;;7.33;70.28;98306.09;103574;1279;108902;-67
2022/04/09 04:07:53;;;;;;;0.50;0.50;;;;;;;7.32;70.46;98314.27;103506;1281;97889;-67
2022/04/09 04:10:22;;;;;;;0.50;0.50;;;;;;;7.27;70.24;98317.11;103422;1279;138487;-65
2022/04/09 04:12:56;;;;;;;0.60;0.60;;;;;;;7.23;70.72;98321.37;103381;1279;111729;-67
2022/04/09 04:15:28;;;;;;;0.60;0.60;;;;;;;7.18;70.56;98319.31;103327;1279;139020;-66
2022/04/09 04:17:56;;;;;;;0.60;0.60;;;;;;;7.17;70.68;98320.92;103276;1281;109800;-65
2022/04/09 04:20:26;;;;;;;0.60;0.60;;;;;;;7.17;70.96;98330.45;103516;1279;96583;-66
2022/04/09 04:22:56;;;;;;;0.60;0.60;;;;;;;7.17;71.23;98333.27;103325;1279;139486;-66
2022/04/09 04:25:25;;;;;;;0.50;0.50;;;;;;;7.22;71.15;98332.73;103398;1279;111036;-65
2022/04/09 04:27:54;;;;;;;0.50;0.50;;;;;;;7.35;71.43;98339.52;103271;1279;139681;-66
2022/04/09 04:30:23;;;;;;;0.60;0.60;;;;;;;7.50;70.34;98348.17;103660;1279;108943;-65
2022/04/09 04:32:51;;;;;;;0.50;0.50;;;;;;;7.52;70.28;98352.31;103327;1279;139679;-65
2022/04/09 04:35:24;;;;;;;0.50;0.50;;;;;;;7.57;70.37;98354.59;103446;1279;96841;-64
2022/04/09 04:37:54;;;;;;;0.50;0.50;;;;;;;7.67;69.87;98360.47;103433;1279;111108;-65
2022/04/09 04:40:24;;;;;;;0.60;0.60;;;;;;;7.85;69.82;98363.33;103265;1279;138778;-65
2022/04/09 04:42:56;;;;;;;0.60;0.60;;;;;;;7.99;69.09;98366.73;103422;1279;108924;-65
2022/04/09 04:45:25;;;;;;;0.60;0.60;;;;;;;8.03;68.88;98368.64;103321;1279;139566;-65
2022/04/09 04:47:55;;;;;;;0.50;0.50;;;;;;;8.11;68.49;98367.76;103400;1279;97906;-65
2022/04/09 04:50:27;;;;;;;0.50;0.50;;;;;;;8.12;68.16;98371.02;103388;1279;111035;-66
2022/04/09 04:52:55;;;;;;;0.50;0.50;;;;;;;8.08;68.57;98366.45;103330;1279;139327;-64
2022/04/09 04:55:24;;;;;;;0.50;0.50;;;;;;;8.18;68.48;98362.06;103393;1279;107792;-64
2022/04/09 04:57:52;;;;;;;0.40;0.40;;;;;;;8.31;68.25;98357.01;103261;1279;139458;-65
2022/04/09 05:00:33;;;;;;;0.50;0.50;;;;;;;8.26;67.96;98368.22;103461;1279;96592;-66
2022/04/09 05:03:04;;;;;;;0.50;0.50;;;;;;;8.11;67.36;98372.86;103281;1279;139094;-66
2022/04/09 05:05:34;;;;;;;0.60;0.60;;;;;;;8.05;67.59;98380.92;103372;1279;100027;-67
2022/04/09 05:08:03;;;;;;;0.50;0.50;;;;;;;8.03;67.84;98382.96;103307;1279;111621;-65
2022/04/09 05:10:31;;;;;;;0.50;0.50;;;;;;;8.12;67.92;98388.34;103324;1279;139179;-66
2022/04/09 05:13:00;;;;;;;0.50;0.50;;;;;;;8.27;67.67;98389.94;103434;1279;96803;-65
2022/04/09 05:15:29;;;;;;;0.50;0.50;;;;;;;8.35;67.52;98395.91;103386;1279;138568;-66
2022/04/09 05:18:01;;;;;;;0.60;0.60;;;;;;;8.42;66.82;98404.95;103379;1279;99438;-65
2022/04/09 05:20:29;;;;;;;0.60;0.60;;;;;;;8.41;66.82;98411.16;103358;1279;108809;-66
2022/04/09 05:22:59;;;;;;;0.50;0.50;;;;;;;8.49;66.65;98415.95;103478;1279;138750;-64
2022/04/09 05:25:31;;;;;;;0.60;0.60;;;;;;;8.54;66.09;98418.50;103528;1279;96577;-66
2022/04/09 05:28:04;;;;;;;0.50;0.50;;;;;;;8.42;66.36;98417.84;103275;1279;139299;-66
2022/04/09 05:30:36;;;;;;;0.50;0.50;;;;;;;8.30;66.66;98418.78;103497;1279;98531;-65
2022/04/09 05:33:05;;;;;;;0.50;0.50;;;;;;;8.29;66.67;98416.87;103669;1279;139116;-66
2022/04/09 05:35:33;;;;;;;0.50;0.50;;;;;;;8.28;66.49;98414.46;103450;1279;96597;-65
2022/04/09 05:38:03;;;;;;;0.50;0.50;;;;;;;8.33;66.35;98413.48;103449;1279;96768;-66
2022/04/09 05:40:34;;;;;;;0.50;0.50;;;;;;;8.30;66.44;98414.17;103345;1279;138859;-67
2022/04/09 05:43:08;;;;;;;0.50;0.50;;;;;;;8.23;66.51;98413.98;103406;1279;99448;-63
2022/04/09 05:45:36;;;;;;;0.50;0.50;;;;;;;8.01;66.60;98409.61;103457;1279;138157;-65
2022/04/09 05:48:04;;;;;;;0.50;0.50;;;;;;;7.82;67.18;98405.16;103419;1279;97035;-65
2022/04/09 05:50:40;;;;;;;0.50;0.50;;;;;;;7.96;67.64;98403.44;103292;1279;139019;-64
2022/04/09 05:53:08;;;;;;;0.50;0.50;;;;;;;8.09;67.01;98408.82;103413;1279;111314;-65
2022/04/09 05:55:37;;;;;;;0.50;0.50;;;;;;;8.04;66.80;98416.33;103326;1279;99626;-65
2022/04/09 05:58:04;;;;;;;0.50;0.50;;;;;;;7.94;67.34;98416.41;103321;1279;138620;-65
2022/04/09 06:00:34;;;;;;;0.50;0.50;;;;;;;7.96;68.21;98411.23;103475;1279;96841;-65
2022/04/09 06:03:12;;;;;;;0.50;0.50;;;;;;;8.13;68.52;98416.39;103317;1278;138997;-64
2022/04/09 06:05:40;;;;;;;0.60;0.60;;;;;;;8.20;68.07;98414.67;103396;1279;111217;-65
2022/04/09 06:08:14;;;;;;;0.50;0.50;;;;;;;8.13;67.91;98419.06;103216;1279;99375;-66
2022/04/09 06:10:42;;;;;;;0.50;0.50;;;;;;;8.04;67.74;98425.85;103291;1279;138508;-65
2022/04/09 06:13:12;;;;;;;0.60;0.60;;;;;;;8.01;68.36;98431.65;103302;1279;97915;-65
2022/04/09 06:15:41;;;;;;;0.60;0.60;;;;;;;8.00;68.01;98441.44;103384;1279;138900;-65
2022/04/09 06:18:14;;;;;;;0.50;0.50;;;;;;;7.97;67.91;98453.04;103301;1279;110659;-65
2022/04/09 06:20:42;;;;;;;0.60;0.60;;;;;;;8.07;68.12;98461.05;103314;1279;139008;-66
2022/04/09 06:23:13;;;;;;;0.60;0.60;;;;;;;8.16;67.85;98457.09;103348;1279;108998;-65
2022/04/09 06:25:41;;;;;;;0.60;0.60;;;;;;;8.02;67.43;98455.09;103385;1279;97130;-65
2022/04/09 06:28:09;;;;;;;0.60;0.60;;;;;;;7.89;67.86;98455.92;103284;1279;139340;-66
2022/04/09 06:30:39;;;;;;;0.50;0.50;;;;;;;7.89;67.86;98454.33;103439;1279;111131;-65
2022/04/09 06:33:13;;;;;;;0.60;0.60;;;;;;;7.84;68.30;98450.31;103127;1279;138823;-64
2022/04/09 06:35:41;;;;;;;0.60;0.60;;;;;;;7.77;69.00;98448.84;103468;1279;108854;-65
2022/04/09 06:38:10;;;;;;;0.50;0.50;;;;;;;7.77;69.22;98447.64;103371;1279;97507;-65
2022/04/09 06:40:38;;;;;;;0.60;0.60;;;;;;;7.83;69.39;98450.72;103356;1279;138715;-65
2022/04/09 06:43:06;;;;;;;0.50;0.50;;;;;;;7.88;69.52;98445.86;103418;1279;111093;-64
2022/04/09 06:45:54;;;;;;;0.50;0.50;;;;;;;8.02;69.18;98453.53;103348;1279;139269;-65
2022/04/09 06:48:34;;;;;;;0.50;0.50;;;;;;;8.13;69.19;98452.13;103486;1279;108880;-65
2022/04/09 06:51:22;;;;;;;0.50;0.50;;;;;;;8.27;68.99;98451.79;103258;1279;139292;-65
2022/04/09 06:53:52;;;;;;;0.60;0.60;;;;;;;8.30;68.21;98454.52;103474;1279;96596;-65
2022/04/09 06:56:20;;;;;;;0.50;0.50;;;;;;;8.30;67.95;98456.42;103346;1279;111044;-65
2022/04/09 06:58:49;;;;;;;0.50;0.50;;;;;;;8.27;67.78;98460.66;103386;1279;138694;-66
2022/04/09 07:01:17;;;;;;;0.50;0.50;;;;;;;8.30;68.43;98463.66;103348;1281;108403;-65
2022/04/09 07:03:46;;;;;;;0.50;0.50;;;;;;;8.48;68.15;98469.38;103271;1279;139183;-64
2022/04/09 07:06:16;;;;;;;0.50;0.50;;;;;;;8.48;67.35;98473.09;103239;1279;97015;-66
2022/04/09 07:08:44;;;;;;;0.50;0.50;;;;;;;8.52;67.10;98481.59;103498;1279;139184;-66
2022/04/09 07:11:12;;;;;;;0.60;0.60;;;;;;;8.42;66.57;98490.56;103393;1279;99862;-66
2022/04/09 07:13:40;;;;;;;0.50;0.50;;;;;;;8.38;67.23;98494.79;103399;1279;108982;-65
2022/04/09 07:16:07;;;;;;;0.50;0.40;;;;;;;8.38;67.30;98497.45;103281;1279;139237;-65
2022/04/09 07:18:36;;;;;;;0.50;0.50;;;;;;;8.37;66.88;98506.67;103505;1279;97720;-66
2022/04/09 07:21:04;;;;;;;0.50;0.50;;;;;;;8.35;67.48;98507.31;103406;1279;138405;-64
2022/04/09 07:23:32;;;;;;;0.50;0.50;;;;;;;8.37;67.25;98504.53;103427;1279;98426;-67
2022/04/09 07:25:59;;;;;;;0.50;0.50;;;;;;;8.35;67.33;98514.89;103315;1279;109029;-65
2022/04/09 07:28:27;;;;;;;0.60;0.60;;;;;;;8.40;67.38;98524.39;103274;1279;139711;-66
2022/04/09 07:30:55;;;;;;;0.50;0.50;;;;;;;8.46;67.41;98532.78;103384;1279;98045;-66
2022/04/09 07:33:23;;;;;;;0.50;0.50;;;;;;;8.63;67.64;98541.90;103360;1279;138546;-64
2022/04/09 07:35:56;;;;;;;0.50;0.50;;;;;;;8.71;66.70;98550.55;103475;1279;99528;-66
2022/04/09 07:38:24;;;;;;;0.50;0.50;;;;;;;8.75;66.53;98559.02;103414;1279;108835;-66
2022/04/09 07:40:54;;;;;;;0.50;0.50;;;;;;;8.77;66.39;98563.70;103262;1279;138883;-66
2022/04/09 07:43:22;;;;;;;0.50;0.50;;;;;;;8.86;66.51;98566.61;103464;1278;96552;-66
2022/04/09 07:45:49;;;;;;;0.50;0.50;;;;;;;8.92;66.47;98565.48;103350;1279;138530;-67
2022/04/09 07:48:17;;;;;;;0.50;0.50;;;;;;;8.97;66.46;98566.07;103534;1279;99228;-68
2022/04/09 07:50:45;;;;;;;0.50;0.50;;;;;;;8.96;66.21;98569.66;103325;1278;138731;-67
2022/04/09 07:53:13;;;;;;;0.40;0.40;;;;;;;8.95;65.66;98577.34;103499;1279;97080;-66
2022/04/09 07:55:40;;;;;;;0.50;0.50;;;;;;;8.98;64.94;98585.86;103408;1279;96771;-67
2022/04/09 07:58:08;;;;;;;0.60;0.60;;;;;;;9.06;65.29;98596.83;103300;1279;138110;-66
2022/04/09 08:00:37;;;;;;;0.50;0.50;;;;;;;9.22;65.77;98601.15;103076;1279;99954;-64
2022/04/09 08:03:05;;;;;;;0.50;0.50;;;;;;;9.30;64.81;98606.27;103147;1279;139710;-66
2022/04/09 08:05:32;;;;;;;0.50;0.50;;;;;;;9.36;65.22;98607.00;103106;1279;96643;-64
2022/04/09 08:08:01;;;;;;;0.50;0.50;;;;;;;9.48;65.36;98610.69;103352;1279;96575;-63
2022/04/09 08:10:29;;;;;;;0.50;0.40;;;;;;;9.63;64.79;98615.39;103151;1279;138524;-64
2022/04/09 08:12:57;;;;;;;0.40;0.40;;;;;;;9.69;64.06;98623.05;103127;1279;99446;-63
2022/04/09 08:15:25;;;;;;;0.50;0.40;;;;;;;9.63;62.54;98631.31;103159;1279;138676;-65
2022/04/09 08:17:54;;;;;;;0.50;0.50;;;;;;;9.69;63.26;98639.18;103334;1278;97242;-64
2022/04/09 08:20:41;;;;;;;0.50;0.40;;;;;;;9.78;63.03;98644.23;102930;1277;140040;-64
2022/04/09 08:23:09;;;;;;;0.40;0.30;;;;;;;9.77;62.56;98648.38;103256;1279;110738;-64
2022/04/09 08:25:36;;;;;;;0.50;0.40;;;;;;;9.83;62.08;98651.04;103204;1278;99994;-64
2022/04/09 08:28:04;;;;;;;0.50;0.40;;;;;;;9.96;62.69;98652.84;103015;1279;138166;-64
2022/04/09 08:30:32;;;;;;;0.50;0.50;;;;;;;9.96;61.72;98652.54;103308;1279;96572;-64
2022/04/09 08:33:04;;;;;;;0.40;0.40;;;;;;;9.91;61.36;98654.02;103101;1279;138613;-64
2022/04/09 08:35:32;;;;;;;0.50;0.50;;;;;;;9.82;60.37;98663.14;103248;1279;111193;-64
2022/04/09 08:38:01;;;;;;;0.50;0.40;;;;;;;9.80;61.39;98665.20;103336;1279;99600;-65
2022/04/09 08:40:29;;;;;;;0.50;0.50;;;;;;;9.92;61.36;98669.03;103167;1279;138181;-65
2022/04/09 08:42:58;;;;;;;0.50;0.50;;;;;;;9.92;60.84;98675.09;103234;1279;96563;-64
2022/04/09 08:45:26;;;;;;;0.50;0.40;;;;;;;9.91;59.78;98680.80;103060;1279;138733;-65
2022/04/09 08:47:54;;;;;;;0.40;0.40;;;;;;;9.86;59.66;98682.45;103226;1279;111221;-65
2022/04/09 08:50:22;;;;;;;0.40;0.40;;;;;;;9.92;59.59;98687.50;103261;1279;99457;-64
2022/04/09 08:52:51;;;;;;;0.40;0.40;;;;;;;9.86;58.62;98688.82;103028;1280;138097;-66
2022/04/09 08:55:19;;;;;;;0.50;0.40;;;;;;;9.86;59.01;98691.33;103240;1279;97030;-64
2022/04/09 08:57:48;;;;;;;0.50;0.50;;;;;;;9.81;59.06;98693.17;102989;1280;138958;-64
2022/04/09 09:00:17;;;;;;;0.50;0.50;;;;;;;9.81;59.41;98697.95;103219;1279;112403;-65
2022/04/09 09:02:53;;;;;;;0.50;0.50;;;;;;;9.87;59.42;98696.02;103448;1278;139185;-64
2022/04/09 09:05:28;;;;;;;0.50;0.40;;;;;;;9.90;58.50;98696.27;103363;1279;109187;-63
2022/04/09 09:07:57;;;;;;;0.50;0.40;;;;;;;9.99;58.79;98691.73;103363;1279;97001;-68
2022/04/09 09:10:25;;;;;;;0.50;0.40;;;;;;;10.08;58.26;98689.52;103135;1279;138309;-64
2022/04/09 09:13:07;;;;;;;0.50;0.50;;;;;;;10.17;58.19;98688.83;103453;1279;111164;-64
2022/04/09 09:15:46;;;;;;;0.50;0.40;;;;;;;10.33;57.76;98683.95;103307;1279;138556;-64
2022/04/09 09:18:25;;;;;;;0.50;0.40;;;;;;;10.45;57.20;98691.52;103289;1279;110084;-62
2022/04/09 09:20:56;;;;;;;0.50;0.40;;;;;;;10.46;56.76;98707.59;103208;1279;139015;-63
2022/04/09 09:23:30;;;;;;;0.40;0.40;;;;;;;10.47;56.91;98728.84;103837;1279;97001;-64
2022/04/09 09:26:00;;;;;;;0.40;0.30;;;;;;;10.47;56.96;98733.63;103499;1279;111026;-64
2022/04/09 09:28:29;;;;;;;0.50;0.30;;;;;;;10.42;57.16;98742.41;103455;1278;138656;-61
2022/04/09 09:30:59;;;;;;;0.50;0.40;;;;;;;10.26;57.24;98743.70;104222;1279;108908;-63
2022/04/09 09:33:28;;;;;;;0.50;0.50;;;;;;;10.26;57.72;98739.46;103388;1279;138562;-62
2022/04/09 09:36:30;;;;;;;0.50;0.50;;;;;;;10.48;57.41;98732.82;103444;1279;97091;-63
2022/04/09 09:39:03;;;;;;;0.50;0.50;;;;;;;11.20;55.26;98724.55;103138;1279;138928;-64
2022/04/09 09:41:30;;;;;;;0.40;0.30;;;;;;;11.73;54.65;98728.83;103349;1279;99462;-63
2022/04/09 09:44:05;;;;;;;0.40;0.40;;;;;;;12.26;53.00;98733.04;103314;1279;108859;-63
2022/04/09 09:46:34;;;;;;;0.50;0.40;;;;;;;13.14;51.59;98730.46;103263;1279;138621;-63
2022/04/09 09:49:02;;;;;;;0.40;0.30;;;;;;;13.72;50.00;98741.05;103375;1279;97170;-62
2022/04/09 09:51:30;;;;;;;0.40;0.30;;;;;;;14.02;49.39;98742.80;102923;1279;139470;-64
2022/04/09 09:54:07;;;;;;;0.40;0.20;;;;;;;13.66;48.84;98746.77;103253;1279;99448;-63
2022/04/09 09:56:42;;;;;;;0.40;0.30;;;;;;;13.37;46.71;98741.72;103443;1279;109046;-63
2022/04/09 09:59:12;;;;;;;0.40;0.30;;;;;;;14.01;43.15;98751.40;103376;1279;138460;-65
2022/04/09 10:01:47;;;;;;;0.40;0.30;;;;;;;13.80;44.26;98761.90;103355;1279;96506;-64
2022/04/09 10:04:15;;;;;;;0.40;0.20;;;;;;;13.57;44.29;98763.98;103350;1279;138965;-63
2022/04/09 10:06:43;;;;;;;0.40;0.30;;;;;;;13.65;43.77;98765.90;103440;1279;98387;-64
2022/04/09 10:09:16;;;;;;;0.40;0.30;;;;;;;14.45;41.43;98767.75;103325;1278;138991;-66
2022/04/09 10:11:49;;;;;;;0.40;0.20;;;;;;;15.39;38.94;98771.78;103428;1278;96905;-64
2022/04/09 10:14:22;;;;;;;0.40;0.20;;;;;;;16.08;38.58;98769.36;103398;1279;97009;-64
2022/04/09 10:16:51;;;;;;;0.40;0.20;;;;;;;16.67;35.42;98767.60;103362;1279;138499;-64
2022/04/09 10:19:22;;;;;;;0.40;0.20;;;;;;;17.09;35.37;98768.47;103433;1278;99399;-64
2022/04/09 10:21:51;;;;;;;0.40;0.20;;;;;;;17.52;32.85;98774.23;103283;1279;138426;-64
2022/04/09 10:24:22;;;;;;;0.40;0.20;;;;;;;17.82;32.69;98785.39;103415;1279;96880;-65
2022/04/09 10:26:53;;;;;;;0.40;0.10;;;;;;;17.84;31.24;98798.69;103577;1279;138367;-64
2022/04/09 10:29:21;;;;;;;0.40;0.10;;;;;;;17.57;30.36;98805.17;103607;1279;109971;-63
2022/04/09 10:31:52;;;;;;;0.40;0.20;;;;;;;17.44;31.59;98795.81;103437;1279;99531;-65
2022/04/09 10:34:20;;;;;;;0.40;0.20;;;;;;;17.15;32.18;98796.28;103201;1279;138663;-66
2022/04/09 10:36:49;;;;;;;0.40;0.20;;;;;;;16.45;33.26;98806.03;103493;1279;97169;-64
2022/04/09 10:39:39;;;;;;;0.40;0.20;;;;;;;15.91;33.98;98809.31;103464;1279;138498;-65
2022/04/09 10:42:08;;;;;;;0.40;0.20;;;;;;;15.64;34.89;98818.45;103561;1279;111090;-67
2022/04/09 10:44:42;;;;;;;0.40;0.20;;;;;;;15.60;35.55;98822.48;103637;1279;99546;-65
2022/04/09 10:47:13;;;;;;;0.40;0.20;;;;;;;15.51;35.03;98830.77;103381;1279;138738;-65
2022/04/09 10:49:42;;;;;;;0.40;0.20;;;;;;;15.52;35.53;98833.79;103479;1279;98025;-64
2022/04/09 10:52:23;;;;;;;0.40;0.20;;;;;;;15.32;35.51;98846.27;103409;1279;138445;-65
2022/04/09 10:55:05;;;;;;;0.40;0.20;;;;;;;14.85;36.76;98855.98;103451;1279;111075;-65
2022/04/09 10:57:47;;;;;;;0.40;0.20;;;;;;;14.44;37.62;98858.70;103545;1279;139521;-65
2022/04/09 11:00:22;;;;;;;0.40;0.30;;;;;;;14.12;38.72;98860.64;103628;1279;108803;-64
2022/04/09 11:03:28;;;;;;;0.40;0.20;;;;;;;13.93;39.47;98860.80;103269;1278;138646;-65
2022/04/09 11:06:34;;;;;;;0.40;0.20;;;;;;;13.69;37.83;98855.37;103436;1279;96595;-63
2022/04/09 11:09:03;;;;;;;0.40;0.30;;;;;;;13.47;38.88;98857.65;103309;1279;138484;-64
2022/04/09 11:11:31;;;;;;;0.40;0.30;;;;;;;13.36;40.16;98864.21;103458;1279;99449;-63
2022/04/09 11:14:00;;;;;;;0.40;0.30;;;;;;;13.12;40.06;98868.33;103419;1279;108769;-64
2022/04/09 11:16:35;;;;;;;0.40;0.30;;;;;;;13.11;41.32;98878.03;103275;1279;138507;-64
2022/04/09 11:19:03;;;;;;;0.40;0.30;;;;;;;13.02;39.44;98883.55;103898;1279;97925;-64
2022/04/09 11:21:31;;;;;;;0.50;0.40;;;;;;;12.80;38.83;98888.29;103476;1279;138816;-65
2022/04/09 11:24:06;;;;;;;0.40;0.30;;;;;;;12.63;38.52;98883.21;103592;1279;98828;-64
2022/04/09 11:26:34;;;;;;;0.40;0.30;;;;;;;12.54;39.65;98886.22;103667;1279;109085;-62
2022/04/09 11:29:11;;;;;;;0.40;0.30;;;;;;;12.54;39.58;98896.55;103580;1279;138562;-66
2022/04/09 11:31:48;;;;;;;0.40;0.30;;;;;;;12.43;38.50;98906.83;103517;1279;96391;-64
2022/04/09 11:34:17;;;;;;;0.40;0.30;;;;;;;12.41;38.33;98906.77;103629;1279;139465;-64
2022/04/09 11:36:44;;;;;;;0.40;0.30;;;;;;;12.39;38.50;98908.27;103675;1279;100311;-65
2022/04/09 11:39:13;;;;;;;0.40;0.30;;;;;;;12.36;39.08;98917.70;103558;1279;138719;-64
2022/04/09 11:41:46;;;;;;;0.40;0.30;;;;;;;12.25;39.11;98921.02;103904;1279;98376;-65